sensor_id;sensor_type;location;lat;lon;timestamp;temperature;humidity
11047;DHT22;5576;50.008;10.596;2022-07-23T00:01:17;21.80;99.90
11047;DHT22;5576;50.008;10.596;2022-07-23T00:03:42;19.00;99.90
11047;DHT22;5576;50.008;10.596;2022-07-23T00:06:08;21.80;99.90
11047;DHT22;5576;50.008;10.596;2022-07-23T00:08:34;21.80;99.90
11047;DHT22;5576;50.008;10.596;2022-07-23T00:11:00;21.70;99.90
11047;DHT22;5576;50.008;10.596;2022-07-23T00:13:26;21.70;99.90
11047;DHT22;5576;50.008;10.596;2022-07-23T00:15:52;21.70;99.90
11047;DHT22;5576;50.008;10.596;2022-07-23T00:18:18;21.70;99.90
11047;DHT22;5576;50.008;10.596;2022-07-23T00:20:44;21.60;99.90
11047;DHT22;5576;50.008;10.596;2022-07-23T00:23:09;19.20;99.90
11047;DHT22;5576;50.008;10.596;2022-07-23T00:25:35;21.50;99.90
11047;DHT22;5576;50.008;10.596;2022-07-23T00:28:01;21.70;99.90
11047;DHT22;5576;50.008;10.596;2022-07-23T00:30:29;21.70;99.90
11047;DHT22;5576;50.008;10.596;2022-07-23T00:32:57;21.60;99.90
11047;DHT22;5576;50.008;10.596;2022-07-23T00:35:25;21.70;99.90
11047;DHT22;5576;50.008;10.596;2022-07-23T00:37:51;21.70;99.90
11047;DHT22;5576;50.008;10.596;2022-07-23T00:40:17;21.60;99.90
11047;DHT22;5576;50.008;10.596;2022-07-23T00:42:43;21.60;99.90
11047;DHT22;5576;50.008;10.596;2022-07-23T00:45:09;21.60;99.90
11047;DHT22;5576;50.008;10.596;2022-07-23T00:47:35;21.60;99.90
11047;DHT22;5576;50.008;10.596;2022-07-23T00:50:03;21.50;99.90
11047;DHT22;5576;50.008;10.596;2022-07-23T00:52:29;21.50;99.90
11047;DHT22;5576;50.008;10.596;2022-07-23T00:54:55;21.40;99.90
11047;DHT22;5576;50.008;10.596;2022-07-23T00:57:21;21.50;99.90
11047;DHT22;5576;50.008;10.596;2022-07-23T00:59:46;21.50;99.90
11047;DHT22;5576;50.008;10.596;2022-07-23T01:02:12;21.50;99.90
11047;DHT22;5576;50.008;10.596;2022-07-23T01:04:38;21.60;99.90
11047;DHT22;5576;50.008;10.596;2022-07-23T01:07:04;21.60;99.90
11047;DHT22;5576;50.008;10.596;2022-07-23T01:09:31;21.60;99.90
11047;DHT22;5576;50.008;10.596;2022-07-23T01:11:57;21.60;99.90
11047;DHT22;5576;50.008;10.596;2022-07-23T01:14:24;21.60;99.90
11047;DHT22;5576;50.008;10.596;2022-07-23T01:16:50;21.60;99.90
11047;DHT22;5576;50.008;10.596;2022-07-23T01:19:16;21.50;99.90
11047;DHT22;5576;50.008;10.596;2022-07-23T01:21:45;21.50;99.90
11047;DHT22;5576;50.008;10.596;2022-07-23T01:24:12;21.60;99.90
11047;DHT22;5576;50.008;10.596;2022-07-23T01:26:46;21.60;99.90
11047;DHT22;5576;50.008;10.596;2022-07-23T01:29:13;21.60;99.90
11047;DHT22;5576;50.008;10.596;2022-07-23T01:31:39;21.50;99.90
11047;DHT22;5576;50.008;10.596;2022-07-23T01:34:06;21.40;99.90
11047;DHT22;5576;50.008;10.596;2022-07-23T01:36:34;21.20;99.90
11047;DHT22;5576;50.008;10.596;2022-07-23T01:39:02;21.10;99.90
11047;DHT22;5576;50.008;10.596;2022-07-23T01:41:28;21.10;99.90
11047;DHT22;5576;50.008;10.596;2022-07-23T01:43:54;19.80;99.90
11047;DHT22;5576;50.008;10.596;2022-07-23T01:46:19;24.60;99.90
11047;DHT22;5576;50.008;10.596;2022-07-23T01:48:48;18.70;99.90
11047;DHT22;5576;50.008;10.596;2022-07-23T01:51:31;22.00;99.90
11047;DHT22;5576;50.008;10.596;2022-07-23T01:54:03;21.20;99.90
11047;DHT22;5576;50.008;10.596;2022-07-23T01:56:29;21.20;99.90
11047;DHT22;5576;50.008;10.596;2022-07-23T01:58:55;21.20;99.90
11047;DHT22;5576;50.008;10.596;2022-07-23T02:01:21;21.10;99.90
11047;DHT22;5576;50.008;10.596;2022-07-23T02:03:47;22.40;99.90
11047;DHT22;5576;50.008;10.596;2022-07-23T02:06:13;20.20;99.90
11047;DHT22;5576;50.008;10.596;2022-07-23T02:08:38;21.30;99.90
11047;DHT22;5576;50.008;10.596;2022-07-23T02:11:04;21.30;99.90
11047;DHT22;5576;50.008;10.596;2022-07-23T02:13:32;21.20;99.90
11047;DHT22;5576;50.008;10.596;2022-07-23T02:15:59;21.20;99.90
11047;DHT22;5576;50.008;10.596;2022-07-23T02:18:24;21.20;99.90
11047;DHT22;5576;50.008;10.596;2022-07-23T02:20:51;21.10;99.90
11047;DHT22;5576;50.008;10.596;2022-07-23T02:23:16;21.10;99.90
11047;DHT22;5576;50.008;10.596;2022-07-23T02:25:42;21.10;99.90
11047;DHT22;5576;50.008;10.596;2022-07-23T02:28:09;21.20;99.90
11047;DHT22;5576;50.008;10.596;2022-07-23T02:30:35;21.30;99.90
11047;DHT22;5576;50.008;10.596;2022-07-23T02:33:01;21.30;99.90
11047;DHT22;5576;50.008;10.596;2022-07-23T02:35:26;21.20;99.90
11047;DHT22;5576;50.008;10.596;2022-07-23T02:37:59;21.10;99.90
11047;DHT22;5576;50.008;10.596;2022-07-23T02:40:26;21.10;99.90
11047;DHT22;5576;50.008;10.596;2022-07-23T02:42:51;21.10;99.90
11047;DHT22;5576;50.008;10.596;2022-07-23T02:45:17;21.00;99.90
11047;DHT22;5576;50.008;10.596;2022-07-23T02:47:43;21.00;99.90
11047;DHT22;5576;50.008;10.596;2022-07-23T02:50:09;21.00;99.90
11047;DHT22;5576;50.008;10.596;2022-07-23T02:52:34;21.10;99.90
11047;DHT22;5576;50.008;10.596;2022-07-23T02:55:01;21.00;99.90
11047;DHT22;5576;50.008;10.596;2022-07-23T02:57:27;21.90;99.90
11047;DHT22;5576;50.008;10.596;2022-07-23T02:59:52;21.10;99.90
11047;DHT22;5576;50.008;10.596;2022-07-23T03:02:18;21.20;99.90
11047;DHT22;5576;50.008;10.596;2022-07-23T03:04:44;21.20;99.90
11047;DHT22;5576;50.008;10.596;2022-07-23T03:07:11;21.20;99.90
11047;DHT22;5576;50.008;10.596;2022-07-23T03:09:37;21.00;99.90
11047;DHT22;5576;50.008;10.596;2022-07-23T03:12:02;21.00;99.90
11047;DHT22;5576;50.008;10.596;2022-07-23T03:14:29;21.00;99.90
11047;DHT22;5576;50.008;10.596;2022-07-23T03:16:55;21.10;99.90
11047;DHT22;5576;50.008;10.596;2022-07-23T03:19:21;21.00;99.90
11047;DHT22;5576;50.008;10.596;2022-07-23T03:21:47;20.80;99.90
11047;DHT22;5576;50.008;10.596;2022-07-23T03:24:13;20.70;99.90
11047;DHT22;5576;50.008;10.596;2022-07-23T03:26:38;20.80;99.90
11047;DHT22;5576;50.008;10.596;2022-07-23T03:29:05;21.30;99.90
11047;DHT22;5576;50.008;10.596;2022-07-23T03:31:31;20.80;99.90
11047;DHT22;5576;50.008;10.596;2022-07-23T03:33:57;22.80;99.90
11047;DHT22;5576;50.008;10.596;2022-07-23T03:36:24;18.90;99.90
11047;DHT22;5576;50.008;10.596;2022-07-23T03:38:51;21.00;99.90
11047;DHT22;5576;50.008;10.596;2022-07-23T03:41:18;22.70;99.90
11047;DHT22;5576;50.008;10.596;2022-07-23T03:43:44;20.80;99.90
11047;DHT22;5576;50.008;10.596;2022-07-23T03:46:11;20.80;99.90
11047;DHT22;5576;50.008;10.596;2022-07-23T03:48:36;20.70;99.90
11047;DHT22;5576;50.008;10.596;2022-07-23T03:51:02;20.50;99.90
11047;DHT22;5576;50.008;10.596;2022-07-23T03:53:28;20.50;99.90
11047;DHT22;5576;50.008;10.596;2022-07-23T03:55:54;22.70;99.90
11047;DHT22;5576;50.008;10.596;2022-07-23T03:58:20;20.50;99.90
11047;DHT22;5576;50.008;10.596;2022-07-23T04:00:46;20.50;99.90
11047;DHT22;5576;50.008;10.596;2022-07-23T04:03:12;20.60;99.90
11047;DHT22;5576;50.008;10.596;2022-07-23T04:05:39;20.50;99.90
11047;DHT22;5576;50.008;10.596;2022-07-23T04:08:06;20.60;99.90
11047;DHT22;5576;50.008;10.596;2022-07-23T04:10:34;20.50;99.90
11047;DHT22;5576;50.008;10.596;2022-07-23T04:13:01;20.30;99.90
11047;DHT22;5576;50.008;10.596;2022-07-23T04:15:27;20.30;99.90
11047;DHT22;5576;50.008;10.596;2022-07-23T04:17:52;20.40;99.90
11047;DHT22;5576;50.008;10.596;2022-07-23T04:20:19;20.40;99.90
11047;DHT22;5576;50.008;10.596;2022-07-23T04:22:52;20.40;99.90
11047;DHT22;5576;50.008;10.596;2022-07-23T04:25:18;20.50;99.90
11047;DHT22;5576;50.008;10.596;2022-07-23T04:27:44;20.90;99.90
11047;DHT22;5576;50.008;10.596;2022-07-23T04:30:11;18.60;99.90
11047;DHT22;5576;50.008;10.596;2022-07-23T04:32:37;20.70;99.90
11047;DHT22;5576;50.008;10.596;2022-07-23T04:35:08;20.60;99.90
11047;DHT22;5576;50.008;10.596;2022-07-23T04:37:35;20.90;99.90
11047;DHT22;5576;50.008;10.596;2022-07-23T04:40:01;20.70;99.90
11047;DHT22;5576;50.008;10.596;2022-07-23T04:42:27;20.70;99.90
11047;DHT22;5576;50.008;10.596;2022-07-23T04:44:52;20.60;99.90
11047;DHT22;5576;50.008;10.596;2022-07-23T04:47:18;20.70;99.90
11047;DHT22;5576;50.008;10.596;2022-07-23T04:49:45;20.90;99.90
11047;DHT22;5576;50.008;10.596;2022-07-23T04:52:11;20.70;99.90
11047;DHT22;5576;50.008;10.596;2022-07-23T04:54:37;20.90;99.90
11047;DHT22;5576;50.008;10.596;2022-07-23T04:57:03;21.80;99.90
11047;DHT22;5576;50.008;10.596;2022-07-23T04:59:29;20.80;99.90
11047;DHT22;5576;50.008;10.596;2022-07-23T05:01:59;20.80;99.90
11047;DHT22;5576;50.008;10.596;2022-07-23T05:04:25;20.80;99.90
11047;DHT22;5576;50.008;10.596;2022-07-23T05:06:51;20.70;99.90
11047;DHT22;5576;50.008;10.596;2022-07-23T05:09:17;20.70;99.90
11047;DHT22;5576;50.008;10.596;2022-07-23T05:11:42;20.70;99.90
11047;DHT22;5576;50.008;10.596;2022-07-23T05:14:08;20.80;99.90
11047;DHT22;5576;50.008;10.596;2022-07-23T05:16:34;20.70;99.90
11047;DHT22;5576;50.008;10.596;2022-07-23T05:19:06;20.70;99.90
11047;DHT22;5576;50.008;10.596;2022-07-23T05:21:34;20.50;99.90
11047;DHT22;5576;50.008;10.596;2022-07-23T05:24:00;20.50;99.90
11047;DHT22;5576;50.008;10.596;2022-07-23T05:26:26;18.30;99.90
11047;DHT22;5576;50.008;10.596;2022-07-23T05:28:52;20.70;99.90
11047;DHT22;5576;50.008;10.596;2022-07-23T05:33:46;20.90;99.90
11047;DHT22;5576;50.008;10.596;2022-07-23T05:36:13;20.90;99.90
11047;DHT22;5576;50.008;10.596;2022-07-23T05:38:44;24.30;99.90
11047;DHT22;5576;50.008;10.596;2022-07-23T05:41:10;20.80;99.90
11047;DHT22;5576;50.008;10.596;2022-07-23T05:43:37;20.80;99.90
11047;DHT22;5576;50.008;10.596;2022-07-23T05:46:08;20.80;99.90
11047;DHT22;5576;50.008;10.596;2022-07-23T05:48:36;20.80;99.90
11047;DHT22;5576;50.008;10.596;2022-07-23T05:51:07;21.00;99.90
11047;DHT22;5576;50.008;10.596;2022-07-23T05:53:34;21.00;99.90
11047;DHT22;5576;50.008;10.596;2022-07-23T05:56:04;21.10;99.90
11047;DHT22;5576;50.008;10.596;2022-07-23T05:58:31;21.10;99.90
11047;DHT22;5576;50.008;10.596;2022-07-23T06:00:57;21.30;99.90
11047;DHT22;5576;50.008;10.596;2022-07-23T06:03:22;21.30;99.90
11047;DHT22;5576;50.008;10.596;2022-07-23T06:05:49;21.30;99.90
11047;DHT22;5576;50.008;10.596;2022-07-23T06:08:16;21.40;99.90
11047;DHT22;5576;50.008;10.596;2022-07-23T06:10:42;21.50;99.90
11047;DHT22;5576;50.008;10.596;2022-07-23T06:13:08;21.60;99.90
11047;DHT22;5576;50.008;10.596;2022-07-23T06:15:34;21.50;99.90
11047;DHT22;5576;50.008;10.596;2022-07-23T06:18:00;21.60;99.90
11047;DHT22;5576;50.008;10.596;2022-07-23T06:20:26;21.70;99.90
11047;DHT22;5576;50.008;10.596;2022-07-23T06:22:52;21.80;99.90
11047;DHT22;5576;50.008;10.596;2022-07-23T06:25:17;23.10;99.90
11047;DHT22;5576;50.008;10.596;2022-07-23T06:27:46;21.90;99.90
11047;DHT22;5576;50.008;10.596;2022-07-23T06:30:13;21.80;99.90
11047;DHT22;5576;50.008;10.596;2022-07-23T06:32:41;21.80;99.90
11047;DHT22;5576;50.008;10.596;2022-07-23T06:35:07;22.00;99.90
11047;DHT22;5576;50.008;10.596;2022-07-23T06:37:33;22.00;99.90
11047;DHT22;5576;50.008;10.596;2022-07-23T06:40:00;22.10;99.90
11047;DHT22;5576;50.008;10.596;2022-07-23T06:42:26;22.10;99.90
11047;DHT22;5576;50.008;10.596;2022-07-23T06:44:57;22.20;99.90
11047;DHT22;5576;50.008;10.596;2022-07-23T06:47:23;22.10;99.90
11047;DHT22;5576;50.008;10.596;2022-07-23T06:49:48;22.00;99.90
11047;DHT22;5576;50.008;10.596;2022-07-23T06:52:14;22.00;99.90
11047;DHT22;5576;50.008;10.596;2022-07-23T06:54:40;22.00;99.90
11047;DHT22;5576;50.008;10.596;2022-07-23T06:57:05;22.10;99.90
11047;DHT22;5576;50.008;10.596;2022-07-23T06:59:32;22.30;99.90
11047;DHT22;5576;50.008;10.596;2022-07-23T07:01:58;22.20;99.90
11047;DHT22;5576;50.008;10.596;2022-07-23T07:04:24;22.30;99.90
11047;DHT22;5576;50.008;10.596;2022-07-23T07:06:50;22.30;99.90
11047;DHT22;5576;50.008;10.596;2022-07-23T07:09:16;23.40;99.90
11047;DHT22;5576;50.008;10.596;2022-07-23T07:11:41;22.20;99.90
11047;DHT22;5576;50.008;10.596;2022-07-23T07:14:07;22.80;99.90
11047;DHT22;5576;50.008;10.596;2022-07-23T07:16:33;22.10;99.90
11047;DHT22;5576;50.008;10.596;2022-07-23T07:18:58;22.10;99.90
11047;DHT22;5576;50.008;10.596;2022-07-23T07:21:24;22.10;99.90
11047;DHT22;5576;50.008;10.596;2022-07-23T07:23:50;22.10;99.90
11047;DHT22;5576;50.008;10.596;2022-07-23T07:26:15;22.20;99.90
11047;DHT22;5576;50.008;10.596;2022-07-23T07:28:41;22.20;99.90
11047;DHT22;5576;50.008;10.596;2022-07-23T07:31:07;22.10;99.90
11047;DHT22;5576;50.008;10.596;2022-07-23T07:33:32;22.10;99.90
11047;DHT22;5576;50.008;10.596;2022-07-23T07:35:58;22.00;99.90
11047;DHT22;5576;50.008;10.596;2022-07-23T07:38:24;22.00;99.90
11047;DHT22;5576;50.008;10.596;2022-07-23T07:40:49;21.90;99.90
11047;DHT22;5576;50.008;10.596;2022-07-23T07:43:15;21.80;99.90
11047;DHT22;5576;50.008;10.596;2022-07-23T07:45:41;21.70;99.90
11047;DHT22;5576;50.008;10.596;2022-07-23T07:48:07;21.70;99.90
11047;DHT22;5576;50.008;10.596;2022-07-23T07:50:32;22.10;99.90
11047;DHT22;5576;50.008;10.596;2022-07-23T07:52:58;21.60;99.90
11047;DHT22;5576;50.008;10.596;2022-07-23T07:55:24;21.60;99.90
11047;DHT22;5576;50.008;10.596;2022-07-23T07:57:50;21.50;99.90
11047;DHT22;5576;50.008;10.596;2022-07-23T08:00:16;23.80;99.90
11047;DHT22;5576;50.008;10.596;2022-07-23T08:02:43;21.50;99.90
11047;DHT22;5576;50.008;10.596;2022-07-23T08:05:09;21.50;99.90
11047;DHT22;5576;50.008;10.596;2022-07-23T08:07:36;21.50;99.90
11047;DHT22;5576;50.008;10.596;2022-07-23T08:10:03;21.50;99.90
11047;DHT22;5576;50.008;10.596;2022-07-23T08:12:38;21.50;99.90
11047;DHT22;5576;50.008;10.596;2022-07-23T08:15:04;21.60;99.90
11047;DHT22;5576;50.008;10.596;2022-07-23T08:17:30;21.70;99.90
11047;DHT22;5576;50.008;10.596;2022-07-23T08:19:56;21.70;99.90
11047;DHT22;5576;50.008;10.596;2022-07-23T08:22:22;21.80;99.90
11047;DHT22;5576;50.008;10.596;2022-07-23T08:24:48;18.00;99.90
11047;DHT22;5576;50.008;10.596;2022-07-23T08:27:13;21.80;99.90
11047;DHT22;5576;50.008;10.596;2022-07-23T08:29:39;21.90;99.90
11047;DHT22;5576;50.008;10.596;2022-07-23T08:32:05;21.90;99.90
11047;DHT22;5576;50.008;10.596;2022-07-23T08:34:30;22.00;99.90
11047;DHT22;5576;50.008;10.596;2022-07-23T08:36:56;22.00;99.90
11047;DHT22;5576;50.008;10.596;2022-07-23T08:39:22;22.10;99.90
11047;DHT22;5576;50.008;10.596;2022-07-23T08:41:47;22.20;99.90
11047;DHT22;5576;50.008;10.596;2022-07-23T08:44:16;24.70;99.90
11047;DHT22;5576;50.008;10.596;2022-07-23T08:46:43;22.20;99.90
11047;DHT22;5576;50.008;10.596;2022-07-23T08:49:10;22.30;99.90
11047;DHT22;5576;50.008;10.596;2022-07-23T08:51:35;22.40;99.90
11047;DHT22;5576;50.008;10.596;2022-07-23T08:54:01;22.70;99.90
11047;DHT22;5576;50.008;10.596;2022-07-23T08:56:27;22.80;99.90
11047;DHT22;5576;50.008;10.596;2022-07-23T08:58:54;22.60;99.90
11047;DHT22;5576;50.008;10.596;2022-07-23T09:01:20;23.20;99.90
11047;DHT22;5576;50.008;10.596;2022-07-23T09:03:45;23.30;99.90
11047;DHT22;5576;50.008;10.596;2022-07-23T09:06:11;23.40;99.90
11047;DHT22;5576;50.008;10.596;2022-07-23T09:08:39;23.50;99.90
11047;DHT22;5576;50.008;10.596;2022-07-23T09:11:07;25.70;99.90
11047;DHT22;5576;50.008;10.596;2022-07-23T09:16:06;24.00;99.90
11047;DHT22;5576;50.008;10.596;2022-07-23T09:18:36;24.20;99.90
11047;DHT22;5576;50.008;10.596;2022-07-23T09:21:24;24.30;99.90
11047;DHT22;5576;50.008;10.596;2022-07-23T09:26:22;24.30;99.90
11047;DHT22;5576;50.008;10.596;2022-07-23T09:28:52;24.20;99.90
11047;DHT22;5576;50.008;10.596;2022-07-23T09:31:19;25.20;99.90
11047;DHT22;5576;50.008;10.596;2022-07-23T09:33:45;24.70;99.90
11047;DHT22;5576;50.008;10.596;2022-07-23T09:36:10;24.80;99.90
11047;DHT22;5576;50.008;10.596;2022-07-23T09:38:49;25.10;99.90
11047;DHT22;5576;50.008;10.596;2022-07-23T09:41:15;26.40;99.90
11047;DHT22;5576;50.008;10.596;2022-07-23T09:43:40;25.30;99.90
11047;DHT22;5576;50.008;10.596;2022-07-23T09:46:26;25.40;99.90
11047;DHT22;5576;50.008;10.596;2022-07-23T09:48:53;25.50;99.90
11047;DHT22;5576;50.008;10.596;2022-07-23T09:53:56;27.50;99.90
11047;DHT22;5576;50.008;10.596;2022-07-23T09:56:22;27.90;99.90
11047;DHT22;5576;50.008;10.596;2022-07-23T09:58:50;25.20;99.90
11047;DHT22;5576;50.008;10.596;2022-07-23T10:01:18;27.60;99.90
11047;DHT22;5576;50.008;10.596;2022-07-23T10:03:46;25.00;99.90
11047;DHT22;5576;50.008;10.596;2022-07-23T10:06:31;24.90;99.90
11047;DHT22;5576;50.008;10.596;2022-07-23T10:09:22;23.00;99.90
11047;DHT22;5576;50.008;10.596;2022-07-23T10:12:12;24.90;99.90
11047;DHT22;5576;50.008;10.596;2022-07-23T10:14:59;25.00;99.90
11047;DHT22;5576;50.008;10.596;2022-07-23T10:17:28;25.50;99.90
11047;DHT22;5576;50.008;10.596;2022-07-23T10:19:54;23.70;99.90
11047;DHT22;5576;50.008;10.596;2022-07-23T10:22:22;25.10;99.90
11047;DHT22;5576;50.008;10.596;2022-07-23T10:25:04;25.40;99.90
11047;DHT22;5576;50.008;10.596;2022-07-23T10:36:15;26.30;99.90
11047;DHT22;5576;50.008;10.596;2022-07-23T10:41:31;25.90;99.90
11047;DHT22;5576;50.008;10.596;2022-07-23T10:44:16;25.90;99.90
11047;DHT22;5576;50.008;10.596;2022-07-23T10:47:00;25.90;99.90
11047;DHT22;5576;50.008;10.596;2022-07-23T10:54:42;26.30;99.90
11047;DHT22;5576;50.008;10.596;2022-07-23T10:57:10;26.50;99.90
11047;DHT22;5576;50.008;10.596;2022-07-23T11:02:29;26.50;99.90
11047;DHT22;5576;50.008;10.596;2022-07-23T11:05:00;26.60;99.90
11047;DHT22;5576;50.008;10.596;2022-07-23T11:07:26;26.80;99.90
11047;DHT22;5576;50.008;10.596;2022-07-23T11:09:52;27.00;99.90
11047;DHT22;5576;50.008;10.596;2022-07-23T11:15:12;27.10;99.90
11047;DHT22;5576;50.008;10.596;2022-07-23T11:17:58;27.20;99.90
11047;DHT22;5576;50.008;10.596;2022-07-23T11:20:26;27.30;99.90
11047;DHT22;5576;50.008;10.596;2022-07-23T11:22:55;27.40;99.90
11047;DHT22;5576;50.008;10.596;2022-07-23T11:27:51;27.30;99.90
11047;DHT22;5576;50.008;10.596;2022-07-23T11:35:39;30.00;99.90
11047;DHT22;5576;50.008;10.596;2022-07-23T11:38:07;28.10;99.90
11047;DHT22;5576;50.008;10.596;2022-07-23T11:40:34;28.20;99.90
11047;DHT22;5576;50.008;10.596;2022-07-23T11:43:05;28.20;99.90
11047;DHT22;5576;50.008;10.596;2022-07-23T11:45:39;28.20;99.90
11047;DHT22;5576;50.008;10.596;2022-07-23T11:48:07;28.20;99.90
11047;DHT22;5576;50.008;10.596;2022-07-23T11:50:34;28.40;99.90
11047;DHT22;5576;50.008;10.596;2022-07-23T11:53:01;31.60;99.90
11047;DHT22;5576;50.008;10.596;2022-07-23T11:55:27;28.50;99.90
11047;DHT22;5576;50.008;10.596;2022-07-23T11:57:54;27.20;99.90
11047;DHT22;5576;50.008;10.596;2022-07-23T12:00:22;28.30;99.90
11047;DHT22;5576;50.008;10.596;2022-07-23T12:02:51;28.30;99.90
11047;DHT22;5576;50.008;10.596;2022-07-23T12:05:20;26.20;99.90
11047;DHT22;5576;50.008;10.596;2022-07-23T12:07:48;28.50;99.90
11047;DHT22;5576;50.008;10.596;2022-07-23T12:10:22;28.40;99.90
11047;DHT22;5576;50.008;10.596;2022-07-23T12:12:53;28.40;99.90
11047;DHT22;5576;50.008;10.596;2022-07-23T12:15:22;28.70;99.90
11047;DHT22;5576;50.008;10.596;2022-07-23T12:17:49;28.90;99.90
11047;DHT22;5576;50.008;10.596;2022-07-23T12:20:20;29.30;99.90
11047;DHT22;5576;50.008;10.596;2022-07-23T12:22:49;29.30;99.90
11047;DHT22;5576;50.008;10.596;2022-07-23T12:25:21;29.10;99.90
11047;DHT22;5576;50.008;10.596;2022-07-23T12:27:59;29.90;99.90
11047;DHT22;5576;50.008;10.596;2022-07-23T12:30:30;26.30;99.90
11047;DHT22;5576;50.008;10.596;2022-07-23T12:32:57;29.20;99.90
11047;DHT22;5576;50.008;10.596;2022-07-23T12:35:30;29.20;99.90
11047;DHT22;5576;50.008;10.596;2022-07-23T12:38:01;29.20;99.90
11047;DHT22;5576;50.008;10.596;2022-07-23T12:40:31;29.20;99.90
11047;DHT22;5576;50.008;10.596;2022-07-23T12:42:59;29.60;99.90
11047;DHT22;5576;50.008;10.596;2022-07-23T12:45:28;29.60;99.90
11047;DHT22;5576;50.008;10.596;2022-07-23T12:47:57;29.60;99.90
11047;DHT22;5576;50.008;10.596;2022-07-23T12:50:48;31.50;99.90
11047;DHT22;5576;50.008;10.596;2022-07-23T12:53:18;30.60;99.90
11047;DHT22;5576;50.008;10.596;2022-07-23T12:55:46;29.70;99.90
11047;DHT22;5576;50.008;10.596;2022-07-23T12:58:14;29.70;99.90
11047;DHT22;5576;50.008;10.596;2022-07-23T13:00:59;29.70;99.90
11047;DHT22;5576;50.008;10.596;2022-07-23T13:03:30;29.50;99.90
11047;DHT22;5576;50.008;10.596;2022-07-23T13:05:58;29.50;99.90
11047;DHT22;5576;50.008;10.596;2022-07-23T13:08:26;32.20;99.90
11047;DHT22;5576;50.008;10.596;2022-07-23T13:10:52;28.50;99.90
11047;DHT22;5576;50.008;10.596;2022-07-23T13:13:22;32.80;99.90
11047;DHT22;5576;50.008;10.596;2022-07-23T13:15:48;29.90;99.90
11047;DHT22;5576;50.008;10.596;2022-07-23T13:18:13;29.80;99.90
11047;DHT22;5576;50.008;10.596;2022-07-23T13:20:39;29.50;99.90
11047;DHT22;5576;50.008;10.596;2022-07-23T13:23:06;29.10;99.90
11047;DHT22;5576;50.008;10.596;2022-07-23T13:25:32;29.50;99.90
11047;DHT22;5576;50.008;10.596;2022-07-23T13:27:58;26.90;99.90
11047;DHT22;5576;50.008;10.596;2022-07-23T13:30:24;27.70;99.90
11047;DHT22;5576;50.008;10.596;2022-07-23T13:32:50;28.90;99.90
11047;DHT22;5576;50.008;10.596;2022-07-23T13:35:16;26.00;99.90
11047;DHT22;5576;50.008;10.596;2022-07-23T13:37:41;28.10;99.90
11047;DHT22;5576;50.008;10.596;2022-07-23T13:40:07;29.00;99.90
11047;DHT22;5576;50.008;10.596;2022-07-23T13:42:33;29.10;99.90
11047;DHT22;5576;50.008;10.596;2022-07-23T13:45:01;29.10;99.90
11047;DHT22;5576;50.008;10.596;2022-07-23T13:47:26;27.30;99.90
11047;DHT22;5576;50.008;10.596;2022-07-23T13:49:52;28.90;99.90
11047;DHT22;5576;50.008;10.596;2022-07-23T13:52:18;32.40;99.90
11047;DHT22;5576;50.008;10.596;2022-07-23T13:54:43;28.30;99.90
11047;DHT22;5576;50.008;10.596;2022-07-23T13:57:09;28.90;99.90
11047;DHT22;5576;50.008;10.596;2022-07-23T13:59:36;28.90;99.90
11047;DHT22;5576;50.008;10.596;2022-07-23T14:02:03;28.80;99.90
11047;DHT22;5576;50.008;10.596;2022-07-23T14:04:29;28.70;99.90
11047;DHT22;5576;50.008;10.596;2022-07-23T14:06:54;28.50;99.90
11047;DHT22;5576;50.008;10.596;2022-07-23T14:09:21;28.60;99.90
11047;DHT22;5576;50.008;10.596;2022-07-23T14:11:47;29.40;99.90
11047;DHT22;5576;50.008;10.596;2022-07-23T14:14:13;28.70;99.90
11047;DHT22;5576;50.008;10.596;2022-07-23T14:16:39;28.60;99.90
11047;DHT22;5576;50.008;10.596;2022-07-23T14:19:05;27.50;99.90
11047;DHT22;5576;50.008;10.596;2022-07-23T14:21:30;29.30;99.90
11047;DHT22;5576;50.008;10.596;2022-07-23T14:23:56;28.50;99.90
11047;DHT22;5576;50.008;10.596;2022-07-23T14:26:24;28.60;99.90
11047;DHT22;5576;50.008;10.596;2022-07-23T14:28:50;28.80;99.90
11047;DHT22;5576;50.008;10.596;2022-07-23T14:31:15;28.80;99.90
11047;DHT22;5576;50.008;10.596;2022-07-23T14:33:41;28.40;99.90
11047;DHT22;5576;50.008;10.596;2022-07-23T14:36:07;28.40;99.90
11047;DHT22;5576;50.008;10.596;2022-07-23T14:38:33;28.50;99.90
11047;DHT22;5576;50.008;10.596;2022-07-23T14:40:59;28.70;99.90
11047;DHT22;5576;50.008;10.596;2022-07-23T14:43:24;28.80;99.90
11047;DHT22;5576;50.008;10.596;2022-07-23T14:45:50;28.70;99.90
11047;DHT22;5576;50.008;10.596;2022-07-23T14:48:16;28.60;99.90
11047;DHT22;5576;50.008;10.596;2022-07-23T14:50:42;30.90;99.90
11047;DHT22;5576;50.008;10.596;2022-07-23T14:53:07;28.40;99.90
11047;DHT22;5576;50.008;10.596;2022-07-23T14:55:33;28.40;99.90
11047;DHT22;5576;50.008;10.596;2022-07-23T14:57:59;28.20;99.90
11047;DHT22;5576;50.008;10.596;2022-07-23T15:00:25;28.20;99.90
11047;DHT22;5576;50.008;10.596;2022-07-23T15:02:51;30.20;99.90
11047;DHT22;5576;50.008;10.596;2022-07-23T15:05:17;28.10;99.90
11047;DHT22;5576;50.008;10.596;2022-07-23T15:07:43;28.80;99.90
11047;DHT22;5576;50.008;10.596;2022-07-23T15:10:09;29.00;99.90
11047;DHT22;5576;50.008;10.596;2022-07-23T15:12:34;29.20;99.90
11047;DHT22;5576;50.008;10.596;2022-07-23T15:15:00;29.50;99.90
11047;DHT22;5576;50.008;10.596;2022-07-23T15:17:26;29.70;99.90
11047;DHT22;5576;50.008;10.596;2022-07-23T15:19:52;29.80;99.90
11047;DHT22;5576;50.008;10.596;2022-07-23T15:22:18;30.00;99.90
11047;DHT22;5576;50.008;10.596;2022-07-23T15:24:43;30.10;99.90
11047;DHT22;5576;50.008;10.596;2022-07-23T15:27:09;29.70;99.90
11047;DHT22;5576;50.008;10.596;2022-07-23T15:29:35;29.50;99.90
11047;DHT22;5576;50.008;10.596;2022-07-23T15:32:02;29.10;99.90
11047;DHT22;5576;50.008;10.596;2022-07-23T15:34:28;31.90;99.90
11047;DHT22;5576;50.008;10.596;2022-07-23T15:36:54;28.80;99.90
11047;DHT22;5576;50.008;10.596;2022-07-23T15:39:19;27.70;99.90
11047;DHT22;5576;50.008;10.596;2022-07-23T15:41:45;28.60;99.90
11047;DHT22;5576;50.008;10.596;2022-07-23T15:44:11;29.00;99.90
11047;DHT22;5576;50.008;10.596;2022-07-23T15:46:37;29.30;99.90
11047;DHT22;5576;50.008;10.596;2022-07-23T15:49:03;28.30;99.90
11047;DHT22;5576;50.008;10.596;2022-07-23T15:51:28;29.80;99.90
11047;DHT22;5576;50.008;10.596;2022-07-23T15:53:54;29.90;99.90
11047;DHT22;5576;50.008;10.596;2022-07-23T15:56:20;29.90;99.90
11047;DHT22;5576;50.008;10.596;2022-07-23T15:58:46;30.10;99.90
11047;DHT22;5576;50.008;10.596;2022-07-23T16:01:12;30.20;99.90
11047;DHT22;5576;50.008;10.596;2022-07-23T16:03:38;29.60;99.90
11047;DHT22;5576;50.008;10.596;2022-07-23T16:06:05;30.20;99.90
11047;DHT22;5576;50.008;10.596;2022-07-23T16:08:31;30.20;99.90
11047;DHT22;5576;50.008;10.596;2022-07-23T16:10:57;30.10;99.90